Time;durP1;ratioP1;P1;durP2;ratioP2;P2;SDS_P1;SDS_P2;PMS_P1;PMS_P2;Temp;Humidity;BMP_temperature;BMP_pressure;BME280_temperature;BME280_humidity;BME280_pressure;Samples;Min_cycle;Max_cycle;Signal;HPM_P1;HPM_P2
2021/05/28 00:02:12;;;;;;;0.40;0.20;;;8.80;99.90;;;;;;5008453;28;20386;-76
2021/05/28 00:04:38;;;;;;;0.40;0.20;;;8.80;99.90;;;;;;5006878;28;20731;-77
2021/05/28 00:07:04;;;;;;;0.40;0.20;;;8.80;99.90;;;;;;5014857;28;20888;-75
2021/05/28 00:09:33;;;;;;;0.40;0.40;;;9.00;99.90;;;;;;4999529;28;20924;-75
2021/05/28 00:11:58;;;;;;;0.40;0.30;;;8.80;99.90;;;;;;5026002;28;20419;-76
2021/05/28 00:14:24;;;;;;;0.40;0.20;;;8.70;99.90;;;;;;5017986;28;20379;-76
2021/05/28 00:16:50;;;;;;;0.40;0.20;;;9.90;99.90;;;;;;5003571;28;20376;-76
2021/05/28 00:19:16;;;;;;;0.40;0.20;;;8.70;99.90;;;;;;5020973;28;20431;-75
2021/05/28 00:21:41;;;;;;;0.40;0.20;;;9.50;99.90;;;;;;5017406;28;20536;-75
2021/05/28 00:24:08;;;;;;;0.40;0.20;;;8.60;99.90;;;;;;5026756;28;20395;-76
2021/05/28 00:26:34;;;;;;;0.40;0.20;;;8.50;99.90;;;;;;5025366;28;20390;-77
2021/05/28 00:28:59;;;;;;;0.50;0.50;;;8.40;99.90;;;;;;5029348;28;20383;-75
2021/05/28 00:31:25;;;;;;;0.40;0.20;;;8.90;99.90;;;;;;5016892;28;20930;-75
2021/05/28 00:34:01;;;;;;;0.40;0.20;;;8.50;99.90;;;;;;5017934;28;20475;-77
2021/05/28 00:36:27;;;;;;;0.40;0.20;;;8.50;99.90;;;;;;5002491;28;20394;-77
2021/05/28 00:38:53;;;;;;;0.40;0.20;;;10.00;99.90;;;;;;5022191;28;20390;-77
2021/05/28 00:41:18;;;;;;;0.40;0.20;;;8.40;99.90;;;;;;5000783;28;20410;-78
2021/05/28 00:43:44;;;;;;;0.40;0.30;;;10.00;99.90;;;;;;5014377;28;20401;-77
2021/05/28 00:46:10;;;;;;;0.40;0.30;;;8.40;99.90;;;;;;5029130;28;20375;-79
2021/05/28 00:48:35;;;;;;;0.40;0.30;;;8.90;99.90;;;;;;5021991;28;20893;-75
2021/05/28 00:51:01;;;;;;;0.40;0.30;;;8.40;99.90;;;;;;5026028;28;20440;-75
2021/05/28 00:53:28;;;;;;;0.40;0.30;;;8.30;99.90;;;;;;5022794;28;20396;-75
2021/05/28 00:55:55;;;;;;;0.40;0.20;;;8.40;99.90;;;;;;5021049;28;20464;-76
2021/05/28 00:58:21;;;;;;;0.40;0.20;;;8.30;99.90;;;;;;5011533;28;20377;-76
2021/05/28 01:00:49;;;;;;;0.50;0.40;;;8.30;99.90;;;;;;5019169;28;20387;-75
2021/05/28 01:03:15;;;;;;;0.40;0.20;;;8.30;99.90;;;;;;5030631;28;20401;-75
2021/05/28 01:05:40;;;;;;;0.40;0.30;;;8.40;99.90;;;;;;5008626;28;20380;-76
2021/05/28 01:08:06;;;;;;;0.40;0.20;;;8.20;99.90;;;;;;5025634;28;20838;-77
2021/05/28 01:10:31;;;;;;;0.40;0.30;;;8.70;99.90;;;;;;5016673;28;20379;-75
2021/05/28 01:13:09;;;;;;;0.40;0.30;;;9.00;99.90;;;;;;4997392;28;20443;-75
2021/05/28 01:15:35;;;;;;;0.40;0.20;;;8.20;99.90;;;;;;5029075;28;20837;-77
2021/05/28 01:18:01;;;;;;;0.40;0.20;;;8.10;99.90;;;;;;5020427;28;20408;-77
2021/05/28 01:20:27;;;;;;;0.40;0.30;;;7.90;99.90;;;;;;5017043;28;20385;-76
2021/05/28 01:22:53;;;;;;;0.40;0.20;;;8.10;99.90;;;;;;5023479;28;20391;-77
2021/05/28 01:25:20;;;;;;;0.40;0.20;;;8.80;99.90;;;;;;5014058;28;20897;-75
2021/05/28 01:27:47;;;;;;;0.40;0.30;;;8.00;99.90;;;;;;4993913;28;20447;-75
2021/05/28 01:30:14;;;;;;;0.40;0.20;;;8.10;99.90;;;;;;5012778;28;20409;-76
2021/05/28 01:32:41;;;;;;;0.40;0.20;;;8.10;99.90;;;;;;5012183;28;20416;-75
2021/05/28 01:35:08;;;;;;;0.40;0.20;;;7.80;99.90;;;;;;5012843;28;20479;-78
2021/05/28 01:37:33;;;;;;;0.40;0.20;;;8.10;99.90;;;;;;5011932;28;20395;-76
2021/05/28 01:39:59;;;;;;;0.40;0.20;;;8.60;99.90;;;;;;5012172;28;20388;-75
2021/05/28 01:42:25;;;;;;;0.40;0.30;;;9.10;99.90;;;;;;5011541;28;20447;-76
2021/05/28 01:44:53;;;;;;;0.40;0.20;;;8.00;99.90;;;;;;5012670;28;20890;-75
2021/05/28 01:47:19;;;;;;;0.40;0.20;;;8.00;99.90;;;;;;4994359;28;20396;-76
2021/05/28 01:49:45;;;;;;;0.40;0.20;;;8.00;99.90;;;;;;4995102;28;20402;-75
2021/05/28 01:52:12;;;;;;;0.40;0.20;;;8.20;99.90;;;;;;5011709;28;20567;-77
2021/05/28 01:54:39;;;;;;;0.40;0.28;;;7.90;99.90;;;;;;5012709;28;20446;-75
2021/05/28 01:57:07;;;;;;;2.50;0.90;;;8.00;99.90;;;;;;4994886;28;20462;-76
2021/05/28 01:59:32;;;;;;;0.40;0.20;;;7.90;99.90;;;;;;5011567;28;20439;-76
2021/05/28 02:01:58;;;;;;;0.40;0.20;;;8.00;99.90;;;;;;5008570;28;20411;-76
2021/05/28 02:04:24;;;;;;;0.40;0.20;;;9.30;99.90;;;;;;5031616;28;20466;-76
2021/05/28 02:06:51;;;;;;;0.40;0.30;;;8.20;99.90;;;;;;5014098;28;20399;-75
2021/05/28 02:09:18;;;;;;;0.40;0.30;;;7.90;99.90;;;;;;5013491;28;20383;-75
2021/05/28 02:11:44;;;;;;;0.40;0.30;;;7.90;99.90;;;;;;5031933;28;20454;-76
2021/05/28 02:14:09;;;;;;;0.40;0.30;;;7.90;99.90;;;;;;5031711;28;20857;-78
2021/05/28 02:16:36;;;;;;;0.40;0.20;;;7.80;99.90;;;;;;5031377;28;20465;-75
2021/05/28 02:19:03;;;;;;;0.40;0.20;;;7.90;99.90;;;;;;5031746;28;20850;-75
2021/05/28 02:21:29;;;;;;;0.40;0.20;;;7.70;99.90;;;;;;5031097;28;20383;-76
2021/05/28 02:23:55;;;;;;;0.40;0.20;;;7.80;99.90;;;;;;5031742;28;20395;-75
2021/05/28 02:26:21;;;;;;;0.40;0.20;;;7.40;99.90;;;;;;5013274;28;20395;-76
2021/05/28 02:28:46;;;;;;;0.40;0.20;;;7.70;99.90;;;;;;5031413;28;20441;-76
2021/05/28 02:31:12;;;;;;;0.40;0.30;;;7.60;99.90;;;;;;5013172;28;20422;-77
2021/05/28 02:33:38;;;;;;;0.40;0.20;;;7.60;99.90;;;;;;5013434;28;20474;-75
2021/05/28 02:36:05;;;;;;;0.40;0.20;;;7.70;99.90;;;;;;5013901;28;20884;-75
2021/05/28 02:38:31;;;;;;;0.40;0.30;;;7.70;99.90;;;;;;5030531;28;20947;-76
2021/05/28 02:40:57;;;;;;;0.40;0.30;;;8.30;99.90;;;;;;5031465;28;20478;-75
2021/05/28 02:43:23;;;;;;;0.50;0.50;;;7.40;99.90;;;;;;5012894;28;20403;-75
2021/05/28 02:45:48;;;;;;;0.40;0.20;;;7.90;99.90;;;;;;5030644;28;20899;-75
2021/05/28 02:48:14;;;;;;;0.40;0.23;;;7.70;99.90;;;;;;5030852;28;20509;-79
2021/05/28 02:50:39;;;;;;;0.40;0.20;;;7.70;99.90;;;;;;5013302;28;20505;-75
2021/05/28 02:53:05;;;;;;;0.40;0.20;;;7.80;99.90;;;;;;5030630;28;20399;-75
2021/05/28 02:55:31;;;;;;;0.40;0.20;;;8.10;99.90;;;;;;5012870;28;21148;-75
2021/05/28 02:57:57;;;;;;;0.40;0.20;;;7.90;99.90;;;;;;5031191;28;20522;-76
2021/05/28 03:00:23;;;;;;;0.40;0.30;;;7.20;99.90;;;;;;5030172;28;20387;-76
2021/05/28 03:02:50;;;;;;;0.40;0.20;;;7.70;99.90;;;;;;5031291;28;20379;-75
2021/05/28 03:05:16;;;;;;;0.40;0.20;;;7.70;99.90;;;;;;5012103;28;20730;-78
2021/05/28 03:07:42;;;;;;;0.40;0.20;;;7.60;99.90;;;;;;5013495;28;20391;-77
2021/05/28 03:10:09;;;;;;;0.40;0.30;;;7.60;99.90;;;;;;5013312;28;20485;-76
2021/05/28 03:12:34;;;;;;;0.40;0.20;;;7.60;99.90;;;;;;5029821;28;20454;-75
2021/05/28 03:15:00;;;;;;;0.40;0.20;;;8.00;99.90;;;;;;5030280;28;20394;-75
2021/05/28 03:17:26;;;;;;;0.40;0.20;;;7.80;99.90;;;;;;5030206;28;20395;-76
2021/05/28 03:19:52;;;;;;;0.40;0.20;;;8.60;99.90;;;;;;5030974;28;20422;-75
2021/05/28 03:22:31;;;;;;;0.40;0.20;;;8.20;99.90;;;;;;5012378;28;20419;-77
2021/05/28 03:24:57;;;;;;;0.40;0.20;;;7.40;99.90;;;;;;5013169;28;20399;-76
2021/05/28 03:27:23;;;;;;;0.40;0.20;;;7.60;99.90;;;;;;5029957;28;20471;-75
2021/05/28 03:29:49;;;;;;;0.40;0.40;;;7.70;99.90;;;;;;5012908;28;20474;-75
2021/05/28 03:32:15;;;;;;;0.40;0.22;;;7.60;99.90;;;;;;5012696;28;20411;-77
2021/05/28 03:34:40;;;;;;;0.40;0.20;;;7.60;99.90;;;;;;5030388;28;20379;-77
2021/05/28 03:37:06;;;;;;;0.40;0.20;;;7.40;99.90;;;;;;5012470;28;20482;-76
2021/05/28 03:39:32;;;;;;;0.40;0.20;;;7.70;99.90;;;;;;5011653;28;20387;-76
2021/05/28 03:41:58;;;;;;;0.40;0.20;;;8.10;99.90;;;;;;5030565;28;20430;-76
2021/05/28 03:44:23;;;;;;;0.40;0.27;;;7.50;99.90;;;;;;5012223;28;20441;-76
2021/05/28 03:46:49;;;;;;;0.40;0.20;;;7.40;99.90;;;;;;5030141;28;20402;-75
2021/05/28 03:49:15;;;;;;;0.40;0.20;;;7.50;99.90;;;;;;5013010;28;20391;-77
2021/05/28 03:51:40;;;;;;;0.40;0.20;;;7.60;99.90;;;;;;5029627;28;20449;-75
2021/05/28 03:54:06;;;;;;;0.40;0.20;;;7.70;99.90;;;;;;5030244;28;20514;-74
2021/05/28 03:56:31;;;;;;;0.40;0.20;;;7.50;99.90;;;;;;5013874;28;20395;-75
2021/05/28 03:58:57;;;;;;;0.40;0.30;;;7.50;99.90;;;;;;5016189;28;20394;-75
2021/05/28 04:01:23;;;;;;;0.40;0.30;;;7.50;99.90;;;;;;5016036;28;20394;-76
2021/05/28 04:03:48;;;;;;;0.40;0.30;;;7.60;99.90;;;;;;5034181;28;20379;-75
2021/05/28 04:06:14;;;;;;;0.40;0.20;;;7.70;99.90;;;;;;5016801;28;20445;-75
2021/05/28 04:08:39;;;;;;;0.40;0.20;;;7.40;99.90;;;;;;5033850;28;20389;-77
2021/05/28 04:11:05;;;;;;;0.40;0.20;;;7.70;99.90;;;;;;5016130;28;20423;-76
2021/05/28 04:13:32;;;;;;;0.40;0.20;;;7.60;99.90;;;;;;5033346;28;20418;-76
2021/05/28 04:15:59;;;;;;;0.40;0.20;;;7.90;99.90;;;;;;5034325;28;20386;-76
2021/05/28 04:18:25;;;;;;;0.50;0.40;;;7.60;99.90;;;;;;5015851;28;20383;-76
2021/05/28 04:20:52;;;;;;;0.40;0.20;;;7.60;99.90;;;;;;5034393;28;20414;-76
2021/05/28 04:23:19;;;;;;;0.50;0.40;;;8.50;99.90;;;;;;5007621;28;20746;-80
2021/05/28 04:25:46;;;;;;;0.40;0.30;;;7.60;99.90;;;;;;5028742;28;20403;-75
2021/05/28 04:28:12;;;;;;;0.40;0.20;;;7.60;99.90;;;;;;4999339;28;20377;-76
2021/05/28 04:30:38;;;;;;;0.40;0.20;;;7.70;99.90;;;;;;5011129;28;20933;-75
2021/05/28 04:33:04;;;;;;;0.40;0.30;;;7.50;99.90;;;;;;5003710;28;20449;-75
2021/05/28 04:35:30;;;;;;;0.40;0.30;;;7.60;99.90;;;;;;5021503;28;20871;-75
2021/05/28 04:37:55;;;;;;;0.40;0.20;;;7.60;99.90;;;;;;5010342;28;20414;-77
2021/05/28 04:40:21;;;;;;;0.40;0.20;;;7.60;99.90;;;;;;5026351;28;20466;-79
2021/05/28 04:42:47;;;;;;;0.40;0.20;;;7.60;99.90;;;;;;5017043;28;20397;-76
2021/05/28 04:45:13;;;;;;;0.40;0.20;;;7.70;99.90;;;;;;5029951;28;20731;-75
2021/05/28 04:47:40;;;;;;;0.40;0.20;;;7.80;99.90;;;;;;5018723;28;20472;-75
2021/05/28 04:50:06;;;;;;;0.40;0.30;;;7.90;99.90;;;;;;5005187;28;20407;-75
2021/05/28 04:52:32;;;;;;;0.40;0.20;;;7.80;99.90;;;;;;5025446;28;20817;-75
2021/05/28 04:54:58;;;;;;;0.40;0.30;;;7.90;99.90;;;;;;5032026;28;20407;-76
2021/05/28 04:57:23;;;;;;;0.40;0.20;;;7.90;99.90;;;;;;5017042;28;20394;-76
2021/05/28 04:59:49;;;;;;;0.40;0.20;;;7.90;99.90;;;;;;5024702;28;20400;-77
2021/05/28 05:02:15;;;;;;;0.40;0.20;;;8.10;99.90;;;;;;5000471;28;20393;-75
2021/05/28 05:04:40;;;;;;;0.40;0.20;;;8.50;99.90;;;;;;5009869;28;21026;-76
2021/05/28 05:07:06;;;;;;;0.40;0.20;;;8.20;99.90;;;;;;5016087;28;20431;-76
2021/05/28 05:09:32;;;;;;;0.40;0.30;;;8.50;99.90;;;;;;5025910;28;20882;-76
2021/05/28 05:11:57;;;;;;;0.40;0.20;;;8.40;99.90;;;;;;5021659;28;20447;-76
2021/05/28 05:14:23;;;;;;;0.40;0.20;;;8.50;99.90;;;;;;5019570;28;20400;-77
2021/05/28 05:16:49;;;;;;;0.40;0.20;;;8.40;99.90;;;;;;5028795;28;20391;-76
2021/05/28 05:19:14;;;;;;;0.40;0.20;;;8.60;99.90;;;;;;5016437;28;20376;-75
2021/05/28 05:21:41;;;;;;;0.40;0.20;;;8.60;99.90;;;;;;5025511;28;20399;-76
2021/05/28 05:24:10;;;;;;;0.40;0.30;;;8.70;99.90;;;;;;5023148;28;20422;-75
2021/05/28 05:26:37;;;;;;;0.40;0.20;;;8.80;99.90;;;;;;4999905;28;20876;-75
2021/05/28 05:29:03;;;;;;;0.40;0.20;;;9.00;99.90;;;;;;5029047;28;20387;-75
2021/05/28 05:31:29;;;;;;;0.40;0.20;;;8.90;99.90;;;;;;5022157;28;20550;-75
2021/05/28 05:33:55;;;;;;;0.40;0.30;;;9.10;99.90;;;;;;5015038;28;20390;-75
2021/05/28 05:36:21;;;;;;;0.40;0.20;;;8.90;99.90;;;;;;5017429;28;20381;-78
2021/05/28 05:38:47;;;;;;;0.40;0.22;;;9.20;99.90;;;;;;5010972;28;20395;-76
2021/05/28 05:41:12;;;;;;;0.40;0.20;;;9.30;99.90;;;;;;5017574;28;20399;-75
2021/05/28 05:43:38;;;;;;;0.40;0.20;;;9.30;99.90;;;;;;5022819;28;20481;-75
2021/05/28 05:46:04;;;;;;;0.40;0.20;;;9.40;99.90;;;;;;5024360;28;20399;-75
2021/05/28 05:48:29;;;;;;;0.40;0.20;;;9.50;99.90;;;;;;4998235;28;20889;-76
2021/05/28 05:50:56;;;;;;;0.40;0.20;;;9.60;99.90;;;;;;5028492;28;20424;-75
2021/05/28 05:53:21;;;;;;;0.40;0.28;;;9.70;99.90;;;;;;4994674;28;20388;-79
2021/05/28 05:55:47;;;;;;;0.40;0.20;;;9.70;99.90;;;;;;5021948;28;20862;-77
2021/05/28 05:58:13;;;;;;;0.40;0.20;;;9.90;99.90;;;;;;5032287;28;20442;-76
2021/05/28 06:00:39;;;;;;;0.40;0.30;;;9.90;99.90;;;;;;4999477;28;20449;-77
2021/05/28 06:03:05;;;;;;;0.40;0.20;;;10.00;99.90;;;;;;5010064;28;20943;-76
2021/05/28 06:05:31;;;;;;;0.40;0.30;;;10.00;99.90;;;;;;4993874;28;20464;-76
2021/05/28 06:07:57;;;;;;;0.40;0.20;;;10.10;99.90;;;;;;5006105;28;20482;-77
2021/05/28 06:10:22;;;;;;;0.40;0.30;;;10.30;99.90;;;;;;4998999;28;20864;-79
2021/05/28 06:12:48;;;;;;;0.40;0.30;;;10.60;99.90;;;;;;4995683;28;20523;-74
2021/05/28 06:15:14;;;;;;;0.40;0.30;;;10.80;99.90;;;;;;5008748;28;20436;-75
2021/05/28 06:17:39;;;;;;;0.40;0.20;;;10.90;99.90;;;;;;5011157;28;20389;-77
2021/05/28 06:20:06;;;;;;;0.40;0.20;;;10.90;99.90;;;;;;5022955;28;20403;-74
2021/05/28 06:22:32;;;;;;;0.40;0.30;;;10.90;99.90;;;;;;5012930;28;20395;-76
2021/05/28 06:24:58;;;;;;;0.40;0.20;;;11.20;99.90;;;;;;5028100;28;20456;-75
2021/05/28 06:27:24;;;;;;;0.40;0.20;;;11.30;99.90;;;;;;5014929;28;20884;-78
2021/05/28 06:29:49;;;;;;;0.40;0.20;;;11.20;99.90;;;;;;5008340;28;21311;-75
2021/05/28 06:32:15;;;;;;;0.40;0.20;;;11.30;99.90;;;;;;5003089;28;20429;-75
2021/05/28 06:34:42;;;;;;;0.40;0.20;;;11.40;99.90;;;;;;4995207;28;20453;-76
2021/05/28 06:37:07;;;;;;;0.70;0.50;;;11.60;99.90;;;;;;5008994;28;20397;-78
2021/05/28 06:39:33;;;;;;;0.40;0.20;;;11.50;99.90;;;;;;4992607;28;20459;-78
2021/05/28 06:41:59;;;;;;;0.40;0.30;;;11.60;99.90;;;;;;4986494;28;20777;-79
2021/05/28 06:44:25;;;;;;;0.40;0.30;;;11.60;99.90;;;;;;4993959;28;20416;-81
2021/05/28 06:46:52;;;;;;;0.40;0.30;;;11.70;99.90;;;;;;4992312;28;20896;-80
2021/05/28 06:49:18;;;;;;;0.40;0.20;;;11.70;99.90;;;;;;5008746;28;20396;-80
2021/05/28 06:51:45;;;;;;;0.40;0.30;;;11.70;99.90;;;;;;4986645;28;20459;-78
2021/05/28 06:54:12;;;;;;;0.40;0.20;;;11.70;99.90;;;;;;4992903;28;21218;-78
2021/05/28 06:56:38;;;;;;;0.40;0.30;;;11.90;99.90;;;;;;5007173;28;21245;-77
2021/05/28 06:59:06;;;;;;;0.40;0.30;;;11.80;99.90;;;;;;5007332;28;20394;-77
2021/05/28 07:01:32;;;;;;;0.40;0.20;;;11.90;99.90;;;;;;4984760;28;20453;-77
2021/05/28 07:04:01;;;;;;;0.40;0.30;;;11.80;99.90;;;;;;5008496;28;20378;-78
2021/05/28 07:06:27;;;;;;;0.40;0.30;;;12.10;99.90;;;;;;5009526;28;20424;-80
2021/05/28 07:08:53;;;;;;;0.40;0.30;;;12.20;99.90;;;;;;4992616;28;20426;-76
2021/05/28 07:11:18;;;;;;;0.40;0.30;;;12.20;99.90;;;;;;5004613;28;20555;-76
2021/05/28 07:13:44;;;;;;;0.40;0.30;;;12.30;99.90;;;;;;5007581;28;20500;-81
2021/05/28 07:16:10;;;;;;;0.40;0.20;;;12.30;99.90;;;;;;4988789;28;20593;-75
2021/05/28 07:18:35;;;;;;;0.40;0.30;;;12.50;99.90;;;;;;5006887;28;20416;-78
2021/05/28 07:21:01;;;;;;;0.40;0.20;;;12.50;99.90;;;;;;5005867;28;20395;-78
2021/05/28 07:23:29;;;;;;;0.40;0.30;;;12.60;99.90;;;;;;4990160;28;20929;-79
2021/05/28 07:25:55;;;;;;;0.40;0.20;;;12.70;99.90;;;;;;5008891;28;21683;-75
2021/05/28 07:28:20;;;;;;;0.40;0.20;;;12.60;99.90;;;;;;5008327;28;20385;-75
2021/05/28 07:30:47;;;;;;;0.40;0.20;;;12.80;99.90;;;;;;4985439;28;20459;-78
2021/05/28 07:33:13;;;;;;;0.40;0.30;;;12.90;99.90;;;;;;4988122;28;20397;-77
2021/05/28 07:35:39;;;;;;;0.40;0.20;;;12.90;99.90;;;;;;5006940;28;20391;-76
2021/05/28 07:38:05;;;;;;;0.40;0.20;;;12.90;99.90;;;;;;5008973;28;20906;-77
2021/05/28 07:40:32;;;;;;;0.40;0.20;;;12.80;99.90;;;;;;4992214;28;20402;-80
2021/05/28 07:42:57;;;;;;;0.40;0.30;;;12.90;99.90;;;;;;4972605;28;20973;-78
2021/05/28 07:45:23;;;;;;;0.40;0.30;;;13.10;99.90;;;;;;5010192;28;20392;-76
2021/05/28 07:47:49;;;;;;;0.40;0.30;;;13.20;99.90;;;;;;5010527;28;20381;-76
2021/05/28 07:50:14;;;;;;;0.70;0.60;;;13.10;99.90;;;;;;5010952;28;20859;-75
2021/05/28 07:52:40;;;;;;;0.40;0.20;;;13.20;99.90;;;;;;5009231;28;20416;-74
2021/05/28 07:55:07;;;;;;;0.40;0.20;;;13.40;99.90;;;;;;4992523;28;20401;-77
2021/05/28 07:57:32;;;;;;;0.40;0.30;;;13.30;99.90;;;;;;4992102;28;20519;-75
2021/05/28 07:59:59;;;;;;;0.40;0.20;;;13.30;99.90;;;;;;4992779;28;20488;-77
2021/05/28 08:02:25;;;;;;;0.40;0.20;;;13.40;99.90;;;;;;5009598;28;20409;-77
2021/05/28 08:04:51;;;;;;;0.40;0.20;;;13.50;99.90;;;;;;5010252;28;20387;-75
2021/05/28 08:07:17;;;;;;;0.40;0.20;;;13.50;99.90;;;;;;5024097;28;20800;-77
2021/05/28 08:09:45;;;;;;;0.40;0.30;;;13.60;99.90;;;;;;5016621;28;20413;-76
2021/05/28 08:12:19;;;;;;;0.40;0.20;;;13.70;99.90;;;;;;5014721;28;20891;-78
2021/05/28 08:14:45;;;;;;;0.60;0.50;;;12.70;99.90;;;;;;5018472;28;20476;-75
2021/05/28 08:17:18;;;;;;;0.40;0.30;;;13.70;99.90;;;;;;5020657;28;20890;-77
2021/05/28 08:19:47;;;;;;;0.40;0.30;;;13.70;99.90;;;;;;4993885;28;20407;-76
2021/05/28 08:22:13;;;;;;;0.40;0.20;;;13.80;99.90;;;;;;4993531;28;20458;-74
2021/05/28 08:24:39;;;;;;;0.40;0.30;;;13.70;99.90;;;;;;4991333;28;20401;-76
2021/05/28 08:27:04;;;;;;;0.50;0.40;;;14.80;99.90;;;;;;5017465;28;20397;-75
2021/05/28 08:29:30;;;;;;;0.40;0.20;;;13.90;99.90;;;;;;4991600;28;20421;-75
2021/05/28 08:31:56;;;;;;;0.40;0.30;;;13.80;99.90;;;;;;5017211;28;20911;-74
2021/05/28 08:34:21;;;;;;;0.40;0.30;;;13.90;99.90;;;;;;5012853;28;20826;-73
2021/05/28 08:36:47;;;;;;;0.40;0.20;;;13.90;99.90;;;;;;5008264;28;20478;-74
2021/05/28 08:39:13;;;;;;;0.40;0.20;;;13.90;99.90;;;;;;5010074;28;20464;-73
2021/05/28 08:41:42;;;;;;;0.40;0.30;;;13.70;99.90;;;;;;5009546;28;20401;-72
2021/05/28 08:44:09;;;;;;;0.40;0.20;;;13.90;99.90;;;;;;4995520;28;20392;-73
2021/05/28 08:46:34;;;;;;;0.40;0.20;;;14.20;99.90;;;;;;5013348;28;20736;-74
2021/05/28 08:49:00;;;;;;;0.40;0.30;;;14.20;99.90;;;;;;4996074;28;20396;-73
2021/05/28 08:51:26;;;;;;;0.40;0.25;;;14.40;99.90;;;;;;5012969;28;20523;-73
2021/05/28 08:53:52;;;;;;;0.40;0.20;;;14.40;99.90;;;;;;5012663;28;20519;-74
2021/05/28 08:56:17;;;;;;;0.40;0.20;;;14.40;99.90;;;;;;5013235;28;20380;-74
2021/05/28 08:58:43;;;;;;;0.40;0.20;;;14.50;99.90;;;;;;5012702;28;20450;-73
2021/05/28 09:01:09;;;;;;;0.40;0.20;;;14.70;99.90;;;;;;5003010;28;20861;-74
2021/05/28 09:03:37;;;;;;;0.40;0.20;;;14.80;99.90;;;;;;5014524;28;20541;-75
2021/05/28 09:06:14;;;;;;;0.40;0.20;;;14.80;99.90;;;;;;5015398;28;20857;-74
2021/05/28 09:08:40;;;;;;;0.40;0.30;;;14.90;99.90;;;;;;5032330;28;20474;-74
2021/05/28 09:11:08;;;;;;;0.40;0.30;;;14.80;99.90;;;;;;5028243;28;21297;-74
2021/05/28 09:13:46;;;;;;;0.40;0.30;;;15.00;99.90;;;;;;5006527;28;20405;-76
2021/05/28 09:16:14;;;;;;;0.40;0.20;;;15.10;99.90;;;;;;5018287;28;20385;-73
2021/05/28 09:18:49;;;;;;;0.40;0.30;;;15.20;99.90;;;;;;4995365;28;20475;-73
2021/05/28 09:21:31;;;;;;;0.40;0.30;;;15.00;99.90;;;;;;5025131;28;20511;-72
2021/05/28 09:23:57;;;;;;;0.40;0.20;;;15.20;99.90;;;;;;5017270;28;20473;-74
2021/05/28 09:26:28;;;;;;;0.40;0.20;;;15.40;99.90;;;;;;5028866;28;20461;-74
2021/05/28 09:28:55;;;;;;;0.40;0.30;;;14.30;99.40;;;;;;5018376;28;20379;-73
2021/05/28 09:31:23;;;;;;;0.40;0.30;;;15.60;98.90;;;;;;5022495;28;20408;-74
2021/05/28 09:33:51;;;;;;;0.40;0.30;;;14.90;98.40;;;;;;5007998;28;20838;-73
2021/05/28 09:36:24;;;;;;;0.40;0.30;;;15.70;99.70;;;;;;5024758;28;20465;-73
2021/05/28 09:38:59;;;;;;;0.40;0.20;;;15.80;99.60;;;;;;5016189;28;20395;-74
2021/05/28 09:42:01;;;;;;;0.40;0.30;;;15.90;98.30;;;;;;5019302;28;20406;-71
2021/05/28 09:44:28;;;;;;;0.40;0.20;;;16.10;97.10;;;;;;4933408;29;20401;-72
2021/05/28 09:47:01;;;;;;;0.40;0.30;;;16.20;97.40;;;;;;5006084;28;20460;-71
2021/05/28 09:49:31;;;;;;;0.40;0.20;;;16.50;96.50;;;;;;5022766;28;20409;-71
2021/05/28 09:52:24;;;;;;;0.40;0.30;;;16.50;96.60;;;;;;5019350;28;20468;-72
2021/05/28 09:55:06;;;;;;;0.40;0.30;;;16.50;97.40;;;;;;5022733;28;20391;-72
2021/05/28 09:57:41;;;;;;;0.40;0.30;;;16.50;97.10;;;;;;5029655;28;20394;-76
2021/05/28 10:00:31;;;;;;;0.40;0.30;;;16.70;97.40;;;;;;5021841;28;20389;-72
2021/05/28 10:03:16;;;;;;;0.40;0.30;;;16.60;99.20;;;;;;5014986;28;20400;-72
2021/05/28 10:06:00;;;;;;;0.40;0.30;;;16.60;97.40;;;;;;5022346;28;20406;-72
2021/05/28 10:08:27;;;;;;;0.40;0.20;;;16.80;96.00;;;;;;5017838;28;20426;-72
2021/05/28 10:10:55;;;;;;;0.40;0.30;;;16.70;97.80;;;;;;5023685;28;20476;-72
2021/05/28 10:13:25;;;;;;;0.40;0.30;;;16.80;97.60;;;;;;5019640;28;20391;-72
2021/05/28 10:15:54;;;;;;;0.40;0.30;;;16.90;98.10;;;;;;5009424;28;20393;-71
2021/05/28 10:18:21;;;;;;;0.40;0.30;;;16.80;98.30;;;;;;5023663;28;20443;-73
2021/05/28 10:20:49;;;;;;;0.40;0.30;;;16.80;97.70;;;;;;5024161;28;20850;-71
2021/05/28 10:23:15;;;;;;;0.40;0.20;;;16.90;97.10;;;;;;5022950;28;20379;-72
2021/05/28 10:25:42;;;;;;;0.40;0.30;;;16.70;99.70;;;;;;5022995;28;20388;-72
2021/05/28 10:28:14;;;;;;;0.40;0.20;;;17.00;99.20;;;;;;5022737;28;20387;-72
2021/05/28 10:30:42;;;;;;;0.40;0.30;;;17.00;98.40;;;;;;5009788;28;20391;-71
2021/05/28 10:33:30;;;;;;;0.40;0.30;;;17.20;98.60;;;;;;5031616;28;20492;-72
2021/05/28 10:36:01;;;;;;;0.40;0.20;;;17.30;98.20;;;;;;5021295;28;20452;-71
2021/05/28 10:38:29;;;;;;;0.40;0.20;;;17.50;97.70;;;;;;5024515;28;20438;-72
2021/05/28 10:41:07;;;;;;;0.40;0.20;;;17.60;97.50;;;;;;5009330;28;20460;-72
2021/05/28 10:43:34;;;;;;;0.40;0.20;;;17.80;96.30;;;;;;5008871;28;20751;-72
2021/05/28 10:46:07;;;;;;;0.40;0.30;;;17.70;94.50;;;;;;5021746;28;20397;-72
2021/05/28 10:48:38;;;;;;;0.40;0.30;;;17.50;94.30;;;;;;5016178;28;20815;-75
2021/05/28 10:51:05;;;;;;;0.40;0.20;;;17.50;94.10;;;;;;5013743;28;20981;-72
2021/05/28 10:53:32;;;;;;;0.40;0.30;;;17.40;94.30;;;;;;5012308;28;20427;-71
2021/05/28 10:56:12;;;;;;;0.40;0.30;;;17.40;94.40;;;;;;5014579;28;20495;-71
2021/05/28 10:59:11;;;;;;;0.80;0.40;;;17.40;94.50;;;;;;5016181;28;20395;-72
2021/05/28 11:01:42;;;;;;;0.40;0.30;;;17.20;93.70;;;;;;5014728;28;20437;-73
2021/05/28 11:04:10;;;;;;;0.40;0.20;;;17.30;93.40;;;;;;5007675;28;20404;-72
2021/05/28 11:06:54;;;;;;;0.40;0.30;;;17.50;93.60;;;;;;5010860;28;20435;-73
2021/05/28 11:09:39;;;;;;;0.40;0.20;;;17.40;93.30;;;;;;5010715;28;20398;-75
2021/05/28 11:12:09;;;;;;;0.40;0.30;;;17.60;93.20;;;;;;5014088;28;20429;-74
2021/05/28 11:14:37;;;;;;;0.70;0.60;;;17.90;93.60;;;;;;5012487;28;20427;-75
2021/05/28 11:17:03;;;;;;;0.40;0.20;;;18.30;92.80;;;;;;5013271;28;20389;-75
2021/05/28 11:19:30;;;;;;;0.40;0.30;;;18.70;92.10;;;;;;5005890;28;20427;-76
2021/05/28 11:22:05;;;;;;;0.50;0.50;;;18.50;91.60;;;;;;5011076;28;20397;-75
2021/05/28 11:25:03;;;;;;;0.40;0.20;;;18.10;91.80;;;;;;5015552;28;20399;-74
2021/05/28 11:27:32;;;;;;;0.50;0.50;;;18.40;91.60;;;;;;4991095;28;20398;-74
2021/05/28 11:30:03;;;;;;;0.40;0.30;;;18.60;92.10;;;;;;5010346;28;20383;-74
2021/05/28 11:32:34;;;;;;;0.60;0.40;;;18.70;91.10;;;;;;5010711;28;20416;-75
2021/05/28 11:35:22;;;;;;;0.40;0.30;;;19.10;89.90;;;;;;5014323;28;20445;-75
2021/05/28 11:37:59;;;;;;;0.40;0.20;;;19.20;91.70;;;;;;5012766;28;20422;-74
2021/05/28 11:40:27;;;;;;;0.40;0.30;;;20.20;89.50;;;;;;5016776;28;20383;-75
2021/05/28 11:43:27;;;;;;;0.40;0.30;;;20.50;87.10;;;;;;5011182;28;20401;-74
2021/05/28 11:45:55;;;;;;;0.40;0.30;;;21.50;81.10;;;;;;4999055;28;20594;-73
2021/05/28 11:48:23;;;;;;;0.40;0.30;;;21.90;76.90;;;;;;5017686;28;20380;-73
2021/05/28 11:50:56;;;;;;;0.40;0.30;;;21.70;80.70;;;;;;5011474;28;20472;-72
2021/05/28 11:53:23;;;;;;;0.40;0.30;;;21.50;79.80;;;;;;5015348;28;20400;-74
2021/05/28 11:55:49;;;;;;;0.40;0.30;;;22.30;82.60;;;;;;5008483;28;20439;-74
2021/05/28 11:58:17;;;;;;;0.40;0.20;;;22.90;78.80;;;;;;5009110;28;20965;-76
2021/05/28 12:00:44;;;;;;;0.40;0.20;;;22.60;73.40;;;;;;5003251;28;20393;-74
2021/05/28 12:03:10;;;;;;;0.40;0.20;;;22.60;69.40;;;;;;5010546;28;20391;-73
2021/05/28 12:05:39;;;;;;;0.40;0.30;;;21.00;72.90;;;;;;5010794;28;20381;-77
2021/05/28 12:08:11;;;;;;;0.40;0.30;;;20.70;76.90;;;;;;5020858;28;20409;-72
2021/05/28 12:10:43;;;;;;;0.50;0.30;;;19.70;80.90;;;;;;5010174;28;20416;-79
2021/05/28 12:13:14;;;;;;;0.50;0.30;;;19.00;82.90;;;;;;5017306;28;20407;-72
2021/05/28 12:15:42;;;;;;;0.40;0.20;;;18.70;84.60;;;;;;5009650;28;20777;-73
2021/05/28 12:18:18;;;;;;;0.40;0.30;;;19.50;84.00;;;;;;5020265;28;20474;-73
2021/05/28 12:20:47;;;;;;;0.40;0.20;;;20.10;81.40;;;;;;5022355;28;20454;-72
2021/05/28 12:23:25;;;;;;;0.40;0.30;;;20.50;80.00;;;;;;5023684;28;20387;-72
2021/05/28 12:26:02;;;;;;;0.40;0.30;;;20.70;79.80;;;;;;5022576;28;20395;-72
2021/05/28 12:28:31;;;;;;;0.40;0.30;;;20.70;76.60;;;;;;5015166;28;20748;-72
2021/05/28 12:31:03;;;;;;;0.40;0.20;;;21.10;75.90;;;;;;5032953;28;20410;-71
2021/05/28 12:33:35;;;;;;;0.40;0.30;;;20.70;74.80;;;;;;5010187;28;20881;-72
2021/05/28 12:36:12;;;;;;;0.40;0.30;;;20.80;76.70;;;;;;5033094;28;20427;-73
2021/05/28 12:38:40;;;;;;;0.40;0.20;;;20.30;76.60;;;;;;5032863;28;20383;-72
2021/05/28 12:41:09;;;;;;;0.40;0.30;;;20.60;76.70;;;;;;5033197;28;20419;-72
2021/05/28 12:43:37;;;;;;;0.40;0.20;;;20.40;76.00;;;;;;5014530;28;20727;-72
2021/05/28 12:46:03;;;;;;;0.40;0.30;;;20.00;76.60;;;;;;5023575;28;20386;-72
2021/05/28 12:48:50;;;;;;;0.40;0.30;;;20.20;77.20;;;;;;5021579;28;21247;-72
2021/05/28 12:51:18;;;;;;;0.40;0.30;;;20.80;74.50;;;;;;5025381;28;20515;-73
2021/05/28 12:53:45;;;;;;;0.40;0.30;;;20.90;72.60;;;;;;5007441;28;20398;-74
2021/05/28 12:56:50;;;;;;;0.40;0.30;;;20.10;73.20;;;;;;5020980;28;20927;-74